Time,TemperatureF,DewpointF,PressureIn,WindDirection,WindDirectionDegrees,WindSpeedMPH,WindSpeedGustMPH,Humidity,HourlyPrecipIn,Conditions,Clouds,dailyrainin,SolarRadiationWatts/m^2,SoftwareType,DateUTC
2013-07-02 00:00:00,72.5,71.0,30.05,ESE,112,2.0,4.0,95,0.00,,---,0.00,0.00,VWS V14.01,2013-07-02 04:00:00,
2013-07-02 00:12:00,72.4,71.0,30.05,ESE,120,2.0,4.0,95,0.00,,,0.00,0,weatherlink.com 1.10,2013-07-02 04:12:00,
2013-07-02 00:27:00,72.3,71.0,30.05,ESE,120,3.0,4.0,95,0.00,,,0.00,0,weatherlink.com 1.10,2013-07-02 04:27:00,
2013-07-02 00:30:00,72.3,70.8,30.05,ESE,112,2.0,4.0,95,0.00,,---,0.00,0.00,VWS V14.01,2013-07-02 04:30:00,
2013-07-02 00:42:00,72.4,71.0,30.04,ESE,120,3.0,3.0,95,0.00,,,0.00,0,weatherlink.com 1.10,2013-07-02 04:42:00,
2013-07-02 00:57:00,72.6,71.0,30.04,ESE,118,2.0,5.0,96,0.00,,,0.00,0,weatherlink.com 1.10,2013-07-02 04:57:00,
2013-07-02 01:12:00,72.8,72.0,30.04,SSE,166,3.0,5.0,96,0.00,,,0.00,0,weatherlink.com 1.10,2013-07-02 05:12:00,
2013-07-02 01:27:00,73.0,72.0,30.03,South,176,2.0,5.0,96,0.00,,,0.00,0,weatherlink.com 1.10,2013-07-02 05:27:00,
2013-07-02 01:30:00,73.0,71.8,30.03,SSE,158,2.0,5.0,96,0.00,,---,0.00,0.00,VWS V14.01,2013-07-02 05:30:00,
2013-07-02 01:42:00,73.1,72.0,30.03,SE,140,2.0,3.0,95,0.00,,,0.00,0,weatherlink.com 1.10,2013-07-02 05:42:00,
2013-07-02 01:57:00,72.8,71.0,30.02,SE,138,2.0,4.0,95,0.00,,,0.00,0,weatherlink.com 1.10,2013-07-02 05:57:00,
2013-07-02 02:00:00,72.8,71.3,30.02,SE,135,2.0,4.0,95,0.00,,---,0.00,0.00,VWS V14.01,2013-07-02 06:00:00,
2013-07-02 02:12:00,72.7,71.0,30.02,SE,128,1.0,4.0,95,0.00,,,0.00,0,weatherlink.com 1.10,2013-07-02 06:12:00,
2013-07-02 02:27:00,72.7,71.0,30.01,SE,128,2.0,4.0,95,0.00,,,0.00,0,weatherlink.com 1.10,2013-07-02 06:27:00,
2013-07-02 02:30:00,72.7,71.2,30.01,SE,135,2.0,4.0,95,0.00,,---,0.00,0.00,VWS V14.01,2013-07-02 06:30:00,
2013-07-02 02:42:00,72.8,71.0,30.01,SE,128,1.0,3.0,95,0.00,,,0.00,0,weatherlink.com 1.10,2013-07-02 06:42:00,
2013-07-02 02:57:00,72.8,71.0,30.00,SE,128,1.0,3.0,95,0.00,,,0.00,0,weatherlink.com 1.10,2013-07-02 06:57:00,
2013-07-02 03:00:00,72.8,71.3,30.00,SE,135,2.0,4.0,95,0.00,,---,0.00,0.00,VWS V14.01,2013-07-02 07:00:00,
2013-07-02 03:27:00,72.8,71.0,30.00,ESE,122,3.0,4.0,95,0.00,,,0.00,0,weatherlink.com 1.10,2013-07-02 07:27:00,
2013-07-02 03:30:00,72.8,71.3,30.00,SE,135,2.0,4.0,95,0.00,,---,0.00,0.00,VWS V14.01,2013-07-02 07:30:00,
2013-07-02 03:42:00,73.0,72.0,30.00,ESE,111,3.0,4.0,95,0.00,,,0.00,0,weatherlink.com 1.10,2013-07-02 07:42:00,
2013-07-02 03:57:00,73.8,73.0,29.99,SSE,157,2.0,6.0,96,0.00,,,0.00,0,weatherlink.com 1.10,2013-07-02 07:57:00,
2013-07-02 04:00:00,73.9,72.7,29.99,ESE,112,2.0,6.0,96,0.00,,---,0.00,0.00,VWS V14.01,2013-07-02 08:00:00,
2013-07-02 04:12:00,74.1,73.0,29.99,SSE,159,2.0,4.0,95,0.00,,,0.00,0,weatherlink.com 1.10,2013-07-02 08:12:00,
2013-07-02 04:27:00,74.4,73.0,29.99,ESE,111,2.0,4.0,96,0.00,,,0.00,0,weatherlink.com 1.10,2013-07-02 08:27:00,
2013-07-02 04:30:00,74.4,73.2,29.99,SSE,158,2.0,5.0,96,0.00,,---,0.00,0.00,VWS V14.01,2013-07-02 08:30:00,
2013-07-02 04:42:00,74.4,73.0,29.99,ESE,111,4.0,5.0,96,0.00,,,0.00,0,weatherlink.com 1.10,2013-07-02 08:42:00,
2013-07-02 04:57:00,74.3,73.0,29.99,ESE,111,2.0,5.0,95,0.00,,,0.00,0,weatherlink.com 1.10,2013-07-02 08:57:00,
2013-07-02 05:00:00,74.3,72.8,29.99,ESE,112,2.0,5.0,95,0.00,,---,0.00,0.00,VWS V14.01,2013-07-02 09:00:00,
2013-07-02 05:12:00,73.9,72.0,30.00,SE,127,1.0,3.0,95,0.00,,,0.00,0,weatherlink.com 1.10,2013-07-02 09:12:00,
2013-07-02 05:28:00,74.3,73.0,30.00,SSE,148,2.0,4.0,96,0.00,,,0.00,0,weatherlink.com 1.10,2013-07-02 09:28:00,
2013-07-02 05:30:00,74.3,73.1,30.00,ESE,112,2.0,5.0,96,0.00,,---,0.00,0.00,VWS V14.01,2013-07-02 09:30:00,
2013-07-02 05:43:00,74.6,73.0,30.00,ESE,115,2.0,5.0,95,0.00,,,0.00,0,weatherlink.com 1.10,2013-07-02 09:43:00,
2013-07-02 05:58:00,74.8,74.0,30.01,ESE,113,2.0,5.0,96,0.00,,,0.00,0,weatherlink.com 1.10,2013-07-02 09:58:00,
2013-07-02 06:00:00,74.9,73.7,30.01,ESE,112,2.0,5.0,96,0.00,,---,0.00,0.00,VWS V14.01,2013-07-02 10:00:00,
2013-07-02 06:13:00,75.5,74.0,30.01,South,179,0.0,5.0,96,0.00,,,0.00,0,weatherlink.com 1.10,2013-07-02 10:13:00,
2013-07-02 06:28:00,75.8,75.0,30.02,South,169,3.0,5.0,96,0.00,,,0.00,0,weatherlink.com 1.10,2013-07-02 10:28:00,
2013-07-02 06:30:00,75.8,74.6,30.01,SSE,158,2.0,5.0,96,0.00,,---,0.00,0.00,VWS V14.01,2013-07-02 10:30:00,
2013-07-02 06:43:00,76.1,75.0,30.02,SSE,163,2.0,4.0,96,0.00,,,0.00,11,weatherlink.com 1.10,2013-07-02 10:43:00,
2013-07-02 06:58:00,76.6,75.0,30.03,SSE,161,3.0,5.0,96,0.00,,,0.00,26,weatherlink.com 1.10,2013-07-02 10:58:00,
2013-07-02 07:00:00,76.6,75.4,30.03,SSE,158,2.0,5.0,96,0.00,,---,0.00,12.00,VWS V14.01,2013-07-02 11:00:00,
2013-07-02 07:13:00,77.2,76.0,30.04,SSW,201,5.0,6.0,96,0.00,,,0.00,46,weatherlink.com 1.10,2013-07-02 11:13:00,
2013-07-02 07:28:00,77.6,76.0,30.04,South,175,1.0,6.0,96,0.00,,,0.00,58,weatherlink.com 1.10,2013-07-02 11:28:00,
2013-07-02 07:30:00,77.6,76.4,30.04,South,180,3.0,6.0,96,0.00,,---,0.00,49.00,VWS V14.01,2013-07-02 11:30:00,
2013-07-02 07:43:00,77.9,77.0,30.04,SSE,165,1.0,5.0,96,0.00,,,0.00,77,weatherlink.com 1.10,2013-07-02 11:43:00,
2013-07-02 07:58:00,77.6,76.0,30.05,ESE,102,2.0,4.0,95,0.00,,,0.00,81,weatherlink.com 1.10,2013-07-02 11:58:00,
2013-07-02 08:00:00,77.6,75.7,30.05,South,180,2.0,5.0,94,0.00,,---,0.00,75.00,VWS V14.01,2013-07-02 12:00:00,
2013-07-02 08:13:00,77.3,76.0,30.05,SSE,168,3.0,5.0,94,0.00,,,0.00,113,weatherlink.com 1.10,2013-07-02 12:13:00,
2013-07-02 08:28:00,77.8,76.0,30.05,ESE,109,2.0,5.0,94,0.00,,,0.00,153,weatherlink.com 1.10,2013-07-02 12:28:00,
2013-07-02 08:30:00,77.8,75.9,30.05,ESE,112,2.0,5.0,94,0.00,,---,0.00,116.00,VWS V14.01,2013-07-02 12:30:00,
2013-07-02 08:43:00,77.8,76.0,30.05,SSE,155,2.0,4.0,93,0.00,,,0.00,162,weatherlink.com 1.10,2013-07-02 12:43:00,
2013-07-02 08:58:00,77.7,75.0,30.05,ESE,116,1.0,5.0,92,0.00,,,0.00,223,weatherlink.com 1.10,2013-07-02 12:58:00,
2013-07-02 09:00:00,77.7,75.2,30.05,ESE,112,2.0,5.0,92,0.00,,---,0.00,177.00,VWS V14.01,2013-07-02 13:00:00,
2013-07-02 09:13:00,78.3,76.0,30.06,South,171,2.0,4.0,92,0.00,,,0.00,285,weatherlink.com 1.10,2013-07-02 13:13:00,
2013-07-02 09:28:00,79.2,77.0,30.07,SE,146,3.0,4.0,92,0.00,,,0.00,244,weatherlink.com 1.10,2013-07-02 13:28:00,
2013-07-02 09:30:00,79.2,76.7,30.07,South,180,2.0,4.0,92,0.00,,---,0.00,268.00,VWS V14.01,2013-07-02 13:30:00,
2013-07-02 09:43:00,79.9,77.0,30.07,South,186,3.0,6.0,91,0.00,,,0.00,283,weatherlink.com 1.10,2013-07-02 13:43:00,
2013-07-02 09:58:00,80.3,77.0,30.07,South,170,3.0,7.0,89,0.00,,,0.00,294,weatherlink.com 1.10,2013-07-02 13:58:00,
2013-07-02 10:13:00,81.0,77.0,30.07,SE,134,3.0,6.0,87,0.00,,,0.00,381,weatherlink.com 1.10,2013-07-02 14:13:00,
2013-07-02 10:28:00,81.8,77.0,30.07,ESE,108,4.0,6.0,85,0.00,,,0.00,288,weatherlink.com 1.10,2013-07-02 14:28:00,
2013-07-02 10:30:00,81.8,76.8,30.07,SSE,158,3.0,6.0,85,0.00,,---,0.00,312.00,VWS V14.01,2013-07-02 14:30:00,
2013-07-02 10:43:00,82.1,77.0,30.07,SE,132,2.0,5.0,84,0.00,,,0.00,283,weatherlink.com 1.10,2013-07-02 14:43:00,
2013-07-02 10:58:00,82.2,76.0,30.07,ESE,105,3.0,4.0,82,0.00,,,0.00,169,weatherlink.com 1.10,2013-07-02 14:58:00,
2013-07-02 11:00:00,82.2,76.2,30.07,SSE,158,2.0,6.0,82,0.00,,---,0.00,248.00,VWS V14.01,2013-07-02 15:00:00,
2013-07-02 11:13:00,81.6,76.0,30.07,SSE,164,1.0,4.0,83,0.01,,,0.01,160,weatherlink.com 1.10,2013-07-02 15:13:00,
2013-07-02 11:29:00,81.0,76.0,30.07,SE,126,2.0,5.0,85,0.01,,,0.01,506,weatherlink.com 1.10,2013-07-02 15:29:00,
2013-07-02 11:30:00,81.0,76.1,30.07,ESE,112,2.0,5.0,85,0.01,,---,0.01,196.00,VWS V14.01,2013-07-02 15:30:00,
2013-07-02 11:59:00,82.6,78.0,30.06,SE,129,2.0,4.0,86,0.01,,,0.01,686,weatherlink.com 1.10,2013-07-02 15:59:00,
2013-07-02 12:00:00,82.5,77.9,30.06,SE,135,2.0,9.0,86,0.01,,---,0.01,622.00,VWS V14.01,2013-07-02 16:00:00,
2013-07-02 12:14:00,83.2,76.0,30.06,ESE,118,2.0,5.0,80,0.00,,,0.01,1194,weatherlink.com 1.10,2013-07-02 16:14:00,
2013-07-02 12:29:00,85.0,77.0,30.06,SSE,153,3.0,5.0,76,0.00,,,0.01,905,weatherlink.com 1.10,2013-07-02 16:29:00,
2013-07-02 12:30:00,84.9,76.9,30.06,ESE,112,2.0,7.0,77,0.01,,---,0.01,886.00,VWS V14.01,2013-07-02 16:30:00,
2013-07-02 12:44:00,85.9,76.0,30.06,SSE,153,3.0,6.0,73,0.00,,,0.01,754,weatherlink.com 1.10,2013-07-02 16:44:00,
2013-07-02 12:59:00,86.4,77.0,30.07,South,182,2.0,7.0,73,0.00,,,0.01,323,weatherlink.com 1.10,2013-07-02 16:59:00,
2013-07-02 13:14:00,86.1,77.0,30.07,SE,144,2.0,5.0,74,0.00,,,0.01,227,weatherlink.com 1.10,2013-07-02 17:14:00,
2013-07-02 13:29:00,85.5,77.0,30.08,SE,136,3.0,7.0,75,0.00,,,0.01,236,weatherlink.com 1.10,2013-07-02 17:29:00,
2013-07-02 13:44:00,84.8,77.0,30.08,South,177,2.0,7.0,77,0.00,,,0.01,121,weatherlink.com 1.10,2013-07-02 17:44:00,
2013-07-02 13:59:00,84.1,77.0,30.08,South,173,4.0,6.0,78,0.00,,,0.01,77,weatherlink.com 1.10,2013-07-02 17:59:00,
2013-07-02 14:14:00,83.3,77.0,30.08,South,186,6.0,7.0,80,0.00,,,0.01,53,weatherlink.com 1.10,2013-07-02 18:14:00,
2013-07-02 14:29:00,82.2,75.0,30.09,ENE,58,5.0,9.0,79,0.00,,,0.01,49,weatherlink.com 1.10,2013-07-02 18:29:00,
2013-07-02 14:30:00,82.3,75.1,30.09,SSE,158,4.0,10.0,79,0.00,,---,0.01,55.00,VWS V14.01,2013-07-02 18:30:00,
2013-07-02 14:44:00,80.9,75.0,30.09,NNE,32,2.0,10.0,81,0.00,,,0.01,86,weatherlink.com 1.10,2013-07-02 18:44:00,
2013-07-02 14:59:00,79.8,75.0,30.08,SW,221,5.0,9.0,84,0.00,,,0.01,98,weatherlink.com 1.10,2013-07-02 18:59:00,
2013-07-02 15:14:00,78.9,74.0,30.08,WNW,287,3.0,5.0,86,0.00,,,0.01,135,weatherlink.com 1.10,2013-07-02 19:14:00,
2013-07-02 15:29:00,78.4,74.0,30.07,West,269,1.0,5.0,87,0.00,,,0.01,183,weatherlink.com 1.10,2013-07-02 19:29:00,
2013-07-02 15:30:00,78.4,74.2,30.07,NE,45,2.0,6.0,87,0.00,,---,0.01,136.00,VWS V14.01,2013-07-02 19:30:00,
2013-07-02 15:44:00,78.3,75.0,30.07,East,84,2.0,4.0,88,0.00,,,0.01,281,weatherlink.com 1.10,2013-07-02 19:44:00,
2013-07-02 15:59:00,78.5,75.0,30.06,NNE,30,1.0,6.0,88,0.00,,,0.01,306,weatherlink.com 1.10,2013-07-02 19:59:00,
2013-07-02 16:00:00,78.5,74.7,30.06,NE,45,2.0,6.0,88,0.00,,---,0.01,271.00,VWS V14.01,2013-07-02 20:00:00,
2013-07-02 16:14:00,79.1,76.0,30.05,NW,324,0.0,4.0,89,0.00,,,0.01,341,weatherlink.com 1.10,2013-07-02 20:14:00,
2013-07-02 16:29:00,79.8,76.0,30.05,NE,42,0.0,2.0,88,0.00,,,0.01,302,weatherlink.com 1.10,2013-07-02 20:29:00,
2013-07-02 16:30:00,79.8,75.9,30.05,North,0,1.0,4.0,88,0.00,,---,0.01,329.00,VWS V14.01,2013-07-02 20:30:00,
2013-07-02 16:44:00,80.4,76.0,30.06,NE,42,1.0,4.0,85,0.00,,,0.01,179,weatherlink.com 1.10,2013-07-02 20:44:00,
2013-07-02 16:59:00,80.2,74.0,30.06,NE,42,3.0,3.0,82,0.00,,,0.01,156,weatherlink.com 1.10,2013-07-02 20:59:00,
2013-07-02 17:14:00,79.8,74.0,30.06,NW,305,0.0,2.0,81,0.00,,,0.01,70,weatherlink.com 1.10,2013-07-02 21:14:00,
2013-07-02 17:29:00,79.1,73.0,30.05,NNE,12,0.0,4.0,82,0.00,,,0.01,90,weatherlink.com 1.10,2013-07-02 21:29:00,
2013-07-02 17:44:00,78.5,73.0,30.05,North,11,1.0,2.0,83,0.00,,,0.01,91,weatherlink.com 1.10,2013-07-02 21:44:00,
2013-07-02 17:59:00,77.8,72.0,30.05,NNE,15,1.0,2.0,83,0.00,,,0.01,90,weatherlink.com 1.10,2013-07-02 21:59:00,
2013-07-02 18:00:00,77.9,72.3,30.05,North,0,1.0,3.0,83,0.00,,---,0.01,91.00,VWS V14.01,2013-07-02 22:00:00,
2013-07-02 18:14:00,77.3,73.0,30.06,NE,44,1.0,4.0,85,0.00,,,0.01,81,weatherlink.com 1.10,2013-07-02 22:14:00,
2013-07-02 18:29:00,76.7,72.0,30.07,NNW,336,1.0,4.0,86,0.00,,,0.01,70,weatherlink.com 1.10,2013-07-02 22:29:00,
2013-07-02 18:30:00,76.7,72.2,30.07,NE,45,2.0,5.0,86,0.00,,---,0.01,81.00,VWS V14.01,2013-07-02 22:30:00,
2013-07-02 18:44:00,76.3,72.0,30.08,NNE,32,2.0,4.0,87,0.00,,,0.01,54,weatherlink.com 1.10,2013-07-02 22:44:00,
2013-07-02 18:59:00,75.8,72.0,30.08,NNE,32,1.0,4.0,88,0.00,,,0.01,39,weatherlink.com 1.10,2013-07-02 22:59:00,
2013-07-02 19:00:00,75.9,71.8,30.08,NNE,22,2.0,4.0,87,0.00,,---,0.01,54.00,VWS V14.01,2013-07-02 23:00:00,
2013-07-02 19:14:00,75.4,72.0,30.08,NNE,32,1.0,3.0,88,0.00,,,0.01,40,weatherlink.com 1.10,2013-07-02 23:14:00,
2013-07-02 19:29:00,75.3,72.0,30.09,NNE,30,3.0,4.0,89,0.00,,,0.01,42,weatherlink.com 1.10,2013-07-02 23:29:00,
2013-07-02 19:30:00,75.3,71.8,30.09,NNE,22,1.0,4.0,89,0.00,,---,0.01,40.00,VWS V14.01,2013-07-02 23:30:00,
2013-07-02 19:44:00,75.1,72.0,30.09,NE,55,1.0,6.0,90,0.00,,,0.01,32,weatherlink.com 1.10,2013-07-02 23:44:00,
2013-07-02 19:59:00,74.7,72.0,30.09,NNE,33,1.0,5.0,90,0.00,,,0.01,16,weatherlink.com 1.10,2013-07-02 23:59:00,
2013-07-02 20:14:00,74.4,71.0,30.09,North,350,1.0,3.0,90,0.00,,,0.01,0,weatherlink.com 1.10,2013-07-03 00:14:00,
2013-07-02 20:29:00,74.3,72.0,30.09,North,351,0.0,3.0,91,0.00,,,0.01,0,weatherlink.com 1.10,2013-07-03 00:29:00,
2013-07-02 20:30:00,74.3,71.5,30.09,North,0,1.0,3.0,91,0.00,,---,0.01,5.00,VWS V14.01,2013-07-03 00:30:00,
2013-07-02 20:44:00,74.2,72.0,30.10,NE,53,2.0,4.0,91,0.00,,,0.01,0,weatherlink.com 1.10,2013-07-03 00:44:00,
2013-07-02 20:59:00,74.1,71.0,30.10,NE,42,1.0,4.0,91,0.00,,,0.01,0,weatherlink.com 1.10,2013-07-03 00:59:00,
2013-07-02 21:14:00,74.0,71.0,30.10,NW,309,1.0,3.0,91,0.00,,,0.01,0,weatherlink.com 1.10,2013-07-03 01:14:00,
2013-07-02 21:29:00,74.1,72.0,30.10,NE,45,0.0,3.0,92,0.00,,,0.01,0,weatherlink.com 1.10,2013-07-03 01:29:00,
2013-07-02 21:30:00,74.1,71.6,30.10,NE,45,1.0,3.0,92,0.00,,---,0.01,0.00,VWS V14.01,2013-07-03 01:30:00,
2013-07-02 21:44:00,74.1,72.0,30.11,North,360,1.0,3.0,92,0.00,,,0.01,0,weatherlink.com 1.10,2013-07-03 01:44:00,
2013-07-02 21:59:00,74.2,72.0,30.10,NE,49,3.0,5.0,92,0.00,,,0.01,0,weatherlink.com 1.10,2013-07-03 01:59:00,
2013-07-02 22:00:00,74.2,71.7,30.10,NE,45,2.0,5.0,92,0.00,,---,0.01,0.00,VWS V14.01,2013-07-03 02:00:00,
2013-07-02 22:14:00,74.0,72.0,30.10,NE,46,3.0,4.0,92,0.00,,,0.01,0,weatherlink.com 1.10,2013-07-03 02:14:00,
2013-07-02 22:30:00,73.8,71.3,30.10,NE,45,2.0,5.0,92,0.00,,---,0.01,0.00,VWS V14.01,2013-07-03 02:30:00,
2013-07-02 22:44:00,73.5,71.0,30.11,SE,142,1.0,3.0,93,0.00,,,0.01,0,weatherlink.com 1.10,2013-07-03 02:44:00,
2013-07-02 22:59:00,73.4,71.0,30.11,South,186,2.0,4.0,93,0.00,,,0.01,0,weatherlink.com 1.10,2013-07-03 02:59:00,
2013-07-02 23:14:00,73.4,71.0,30.10,East,101,1.0,3.0,93,0.00,,,0.01,0,weatherlink.com 1.10,2013-07-03 03:14:00,
2013-07-02 23:29:00,74.2,72.0,30.10,South,186,3.0,7.0,94,0.00,,,0.01,0,weatherlink.com 1.10,2013-07-03 03:29:00,
2013-07-02 23:30:00,74.1,72.3,30.10,East,90,2.0,8.0,94,0.00,,---,0.01,0.00,VWS V14.01,2013-07-03 03:30:00,
2013-07-02 23:44:00,74.6,73.0,30.10,ESE,112,1.0,6.0,94,0.00,,,0.01,0,weatherlink.com 1.10,2013-07-03 03:44:00,
2013-07-02 23:59:00,74.8,73.0,30.09,ESE,111,1.0,4.0,94,0.00,,,0.00,0,weatherlink.com 1.10,2013-07-03 03:59:00,